Latest Weather Observations for Ceduna

IDS60801

Issued at 2:05 pm CST Tuesday 16 September 2014 (issued every 30 minutes, with the page automatically refreshed every 10 minutes)

About weather observations | Map of weather stations | Latest weather observations for SA | Other Formats
Station Details ID: 018012 Name: CEDUNA AMO Lat: -32.13 Lon: 133.70 Height: 15.3 m
Data from the previous 72 hours. | See also: Recent months at Ceduna
Date/Time
CST
Temp
°C
App
Temp
°C
Dew
Point
Rel
Hum
%
Delta-T
°C
Wind Press
QNH
hPa
Press
MSL
hPa
Rain
since 9 am
mm
Dir
 
Spd
km/h
Gust
km/h
Spd
kts
Gust
kts
16/02:00pm 17.8 12.2 7.0 49 5.4 SW 26 32 14 17 1019.4 1019.4 0.0
16/01:30pm 19.1 13.9 3.6 35 7.3 SSW 20 26 11 14 1019.5 1019.5 0.0
16/01:00pm 18.0 12.9 0.7 31 7.6 SW 17 24 9 13 1019.9 1019.9 0.0
16/12:30pm 17.5 13.7 7.6 52 5.0 SSW 17 24 9 13 1020.5 1020.5 0.0
16/12:00pm 17.1 13.5 8.2 56 4.5 SW 17 22 9 12 1021.0 1021.0 0.0
16/11:30am 16.9 13.2 8.0 55 4.5 SSW 17 22 9 12 1021.4 1021.4 0.0
16/11:00am 17.1 13.9 8.5 57 4.4 SW 15 20 8 11 1021.7 1021.7 0.0
16/10:30am 16.4 12.8 8.3 58 4.1 SW 17 22 9 12 1021.9 1021.9 0.0
16/10:00am 16.2 13.0 8.5 60 3.9 SW 15 20 8 11 1022.1 1022.1 0.0
16/09:30am 15.9 13.6 9.1 64 3.5 W 11 17 6 9 1022.1 1022.1 0.0
16/09:00am 15.0 13.5 9.3 68 2.9 WNW 7 11 4 6 1022.2 1022.2 0.0
16/08:30am 13.2 11.6 8.8 74 2.2 NNW 7 11 4 6 1022.2 1022.2 0.0
16/08:00am 10.1 8.5 7.8 86 1.1 N 6 7 3 4 1021.8 1021.8 0.0
16/07:30am 7.7 5.2 6.6 93 0.5 NNW 9 9 5 5 1021.5 1021.5 0.0
16/07:00am 5.2 2.7 4.5 95 0.3 N 7 9 4 5 1021.2 1021.2 0.0
16/06:30am 4.1 0.8 2.6 90 0.6 N 9 13 5 7 1021.1 1021.1 0.0
16/06:00am 4.2 1.2 2.2 87 0.8 NNE 7 9 4 5 1021.0 1021.0 0.0
16/05:30am 4.8 2.3 3.6 92 0.5 N 6 9 3 5 1020.8 1020.8 0.0
16/05:00am 4.7 2.5 3.2 90 0.6 ESE 4 6 2 3 1020.5 1020.5 0.0
16/04:30am 6.6 4.3 5.0 89 0.7 SSE 6 9 3 5 1020.4 1020.4 0.0
16/04:25am 6.7 4.4 5.8 94 0.4 SSW 7 13 4 7 1020.4 1020.4 0.0
16/04:00am 11.9 9.2 8.9 82 1.5 SSW 13 17 7 9 1020.3 1020.3 0.0
16/03:30am 12.2 9.2 9.4 83 1.4 SSW 15 19 8 10 1020.4 1020.4 0.0
16/03:00am 12.1 9.5 9.5 84 1.3 SW 13 17 7 9 1020.4 1020.4 0.0
16/02:30am 12.2 9.4 10.0 86 1.1 SSW 15 20 8 11 1020.7 1020.7 0.0
16/02:14am 11.2 8.7 9.6 90 0.8 SSW 13 19 7 10 1020.8 1020.8 0.0
16/02:00am 6.2 3.3 4.8 91 0.6 SSE 9 13 5 7 1020.9 1020.9 0.0
16/01:30am 7.4 5.8 6.5 94 0.4 N 4 6 2 3 1021.1 1021.1 0.0
16/01:00am 7.5 5.0 6.4 93 0.5 N 9 9 5 5 1021.3 1021.3 0.0
16/12:30am 8.1 6.0 6.8 91 0.6 N 7 9 4 5 1021.4 1021.4 0.0
16/12:00am 8.6 6.2 7.1 90 0.7 N 9 11 5 6 1021.5 1021.5 0.0
 
Date/Time
CST
Temp
°C
App
Temp
°C
Dew
Point
Rel
Hum
%
Delta-T
°C
Wind Press
QNH
hPa
Press
MSL
hPa
Rain
since 9 am
mm
Dir
 
Spd
km/h
Gust
km/h
Spd
kts
Gust
kts
15/11:30pm 8.7 6.7 7.0 89 0.8 WNW 7 11 4 6 1021.5 1021.5 0.0
15/11:00pm 12.0 9.9 9.8 86 1.1 SW 11 13 6 7 1021.9 1021.9 0.0
15/10:30pm 12.4 10.4 10.1 86 1.2 SSW 11 13 6 7 1021.8 1021.8 0.0
15/10:00pm 12.5 10.1 10.0 85 1.3 SSW 13 15 7 8 1021.8 1021.8 0.0
15/09:30pm 12.8 11.2 10.1 84 1.4 SSW 9 13 5 7 1021.8 1021.8 0.0
15/09:00pm 13.5 10.6 9.8 78 1.9 SSW 15 19 8 10 1022.2 1022.2 0.0
15/08:30pm 12.6 10.4 9.2 80 1.7 S 11 13 6 7 1021.7 1021.7 0.0
15/08:00pm 11.5 9.0 8.4 81 1.5 S 11 13 6 7 1021.4 1021.4 0.0
15/07:30pm 13.2 11.9 9.9 80 1.7 S 7 9 4 5 1021.1 1021.1 0.0
15/07:00pm 13.8 11.2 9.3 74 2.3 SSW 13 15 7 8 1021.0 1021.0 0.0
15/06:30pm 14.8 11.4 9.1 68 2.9 S 17 22 9 12 1020.6 1020.6 0.0
15/06:00pm 15.4 11.7 9.4 67 3.1 SSW 19 24 10 13 1020.5 1020.5 0.0
15/05:30pm 16.3 12.3 8.9 61 3.8 SSW 20 28 11 15 1020.3 1020.3 0.0
15/05:00pm 16.9 12.8 8.5 57 4.3 SSW 20 28 11 15 1020.1 1020.1 0.0
15/04:30pm 16.9 12.4 10.1 64 3.6 SSW 24 32 13 17 1020.1 1020.1 0.0
15/04:00pm 16.9 11.9 9.6 62 3.8 SSW 26 33 14 18 1020.2 1020.2 0.0
15/03:30pm 17.6 12.3 9.8 60 4.1 SSW 28 33 15 18 1020.2 1020.2 0.0
15/03:00pm 18.1 13.1 9.7 58 4.4 SSW 26 32 14 17 1020.0 1020.0 0.0
15/02:30pm 18.6 13.4 9.0 53 5.0 SSW 26 35 14 19 1020.1 1020.1 0.0
15/02:00pm 18.1 12.9 10.4 60 4.1 SSW 28 35 15 19 1020.2 1020.2 0.0
15/01:30pm 18.1 13.1 9.5 57 4.5 SSW 26 32 14 17 1020.3 1020.3 0.0
15/01:00pm 18.0 12.1 9.2 56 4.6 SSW 30 37 16 20 1020.6 1020.6 0.0
15/12:30pm 18.2 13.0 10.1 59 4.3 SSW 28 37 15 20 1020.7 1020.7 0.0
15/12:00pm 17.4 12.5 10.0 62 3.9 SSW 26 32 14 17 1021.1 1021.1 0.0
15/11:30am 17.6 13.1 10.0 61 4.0 SW 24 30 13 16 1021.0 1021.0 0.0
15/11:00am 17.8 13.1 9.4 58 4.4 SSW 24 30 13 16 1021.1 1021.1 0.0
15/10:30am 18.0 13.3 9.4 57 4.5 SSW 24 32 13 17 1020.9 1020.9 0.0
15/10:00am 18.0 13.1 10.1 60 4.2 SSW 26 33 14 18 1020.9 1020.9 0.0
15/09:30am 16.9 12.5 10.3 65 3.5 SSW 24 32 13 17 1020.8 1020.8 0.0
15/09:00am 17.5 13.5 10.6 64 3.7 SSW 22 30 12 16 1020.5 1020.5 0.0
15/08:30am 16.2 11.9 10.7 70 2.9 SSW 24 32 13 17 1020.4 1020.4 0.0
15/08:00am 16.1 12.7 11.2 72 2.6 SSW 20 30 11 16 1020.0 1020.0 0.0
15/07:30am 15.4 11.6 11.3 76 2.2 SSW 22 28 12 15 1019.6 1019.6 0.0
15/07:00am 14.9 11.6 11.7 81 1.7 SW 20 28 11 15 1019.2 1019.2 0.0
15/06:30am 14.6 10.4 11.2 80 1.8 SW 24 33 13 18 1018.9 1018.9 0.0
15/06:00am 14.6 10.9 11.4 81 1.7 SW 22 30 12 16 1018.5 1018.5 0.0
15/05:30am 14.8 11.2 11.8 82 1.6 SW 22 30 12 16 1018.1 1018.1 0.0
15/05:00am 14.8 10.4 11.8 82 1.6 SW 26 33 14 18 1017.7 1017.7 0.0
15/04:30am 14.9 10.8 11.5 80 1.8 SW 24 33 13 18 1017.5 1017.5 0.0
15/04:00am 15.3 11.4 12.0 81 1.8 SW 24 35 13 19 1017.4 1017.4 0.0
15/03:30am 15.1 10.7 11.8 81 1.8 SW 26 35 14 19 1017.2 1017.2 0.0
15/03:00am 15.3 11.4 12.0 81 1.8 SW 24 32 13 17 1017.2 1017.2 0.0
15/02:30am 15.4 11.4 11.9 79 1.9 WSW 24 33 13 18 1017.1 1017.1 0.0
15/02:00am 15.4 11.4 11.9 79 1.9 WSW 24 33 13 18 1017.0 1017.0 0.0
15/01:30am 15.4 11.8 11.9 79 1.9 WSW 22 32 12 17 1017.1 1017.1 0.0
15/01:00am 15.1 11.2 12.0 82 1.7 WSW 24 35 13 19 1017.2 1017.2 0.0
15/12:30am 15.4 11.2 12.5 83 1.6 W 26 35 14 19 1017.0 1017.0 0.0
15/12:00am 15.5 10.6 12.4 82 1.7 WSW 30 39 16 21 1016.9 1016.9 0.0
 
Date/Time
CST
Temp
°C
App
Temp
°C
Dew
Point
Rel
Hum
%
Delta-T
°C
Wind Press
QNH
hPa
Press
MSL
hPa
Rain
since 9 am
mm
Dir
 
Spd
km/h
Gust
km/h
Spd
kts
Gust
kts
14/11:30pm 15.9 10.2 11.2 73 2.5 W 32 43 17 23 1016.9 1016.9 0.0
14/11:00pm 15.9 10.9 10.8 71 2.7 W 28 37 15 20 1016.9 1016.9 0.0
14/10:30pm 15.8 10.6 11.7 76 2.2 W 30 41 16 22 1017.1 1017.1 0.0
14/10:00pm 15.8 11.9 12.1 78 2.0 W 24 33 13 18 1017.0 1017.0 0.0
14/09:30pm 15.8 11.3 11.5 75 2.3 W 26 39 14 21 1017.0 1017.0 0.0
14/09:00pm 15.9 11.6 12.0 77 2.1 W 26 39 14 21 1017.1 1017.1 0.0
14/08:30pm 15.5 11.2 12.0 79 1.9 W 26 33 14 18 1017.0 1017.0 0.0
14/08:00pm 15.8 10.2 11.5 75 2.3 W 32 43 17 23 1016.7 1016.7 0.0
14/07:30pm 15.8 10.6 11.5 75 2.3 W 30 41 16 22 1016.5 1016.5 0.0
14/07:00pm 16.0 10.3 11.1 72 2.6 W 32 41 17 22 1016.2 1016.2 0.0
14/06:30pm 16.2 10.5 11.0 71 2.8 W 32 41 17 22 1016.0 1016.0 0.0
14/06:00pm 16.6 10.9 11.0 69 3.0 W 32 43 17 23 1015.7 1015.7 0.0
14/05:30pm 17.3 10.7 10.1 62 3.8 W 35 48 19 26 1015.4 1015.4 0.0
14/05:00pm 17.8 11.5 9.8 59 4.2 W 33 46 18 25 1015.0 1015.0 0.0
14/04:30pm 17.8 11.1 10.9 64 3.7 WSW 37 52 20 28 1014.5 1014.5 0.0
14/04:00pm 18.0 11.2 10.5 61 4.0 WSW 37 50 20 27 1014.4 1014.4 0.0
14/03:30pm 18.5 12.0 10.5 59 4.3 WSW 35 50 19 27 1014.4 1014.4 0.0
14/03:00pm 18.7 12.0 11.0 61 4.2 WSW 37 52 20 28 1014.3 1014.3 0.0
14/02:30pm 19.2 13.1 11.8 62 4.1 WSW 35 46 19 25 1014.0 1014.0 0.0
14/02:00pm 19.2 13.4 11.4 60 4.3 WSW 33 46 18 25 1013.8 1013.8 0.0
14/01:30pm 19.5 13.2 12.3 63 4.0 WSW 37 48 20 26 1013.9 1013.9 0.0
14/01:00pm 19.0 12.5 12.8 67 3.5 WSW 39 50 21 27 1013.9 1013.9 0.0
14/12:30pm 19.6 13.5 13.1 66 3.7 WSW 37 44 20 24 1014.0 1014.0 0.0
14/12:00pm 21.9 16.4 11.9 53 5.6 WSW 32 43 17 23 1014.0 1014.0 0.0
14/11:30am 23.1 18.6 11.3 47 6.6 WSW 26 35 14 19 1014.1 1014.1 0.0
14/11:00am 27.4 19.9 -4.6 12 13.8 NW 26 37 14 20 1014.1 1014.1 0.0
14/10:30am 26.3 17.9 -6.3 11 13.5 NNW 30 41 16 22 1014.0 1014.0 0.0
14/10:00am 25.7 16.9 -6.5 11 13.2 NNW 32 44 17 24 1014.1 1014.1 0.0
14/09:30am 24.3 16.3 -6.1 13 12.4 NNW 28 37 15 20 1014.5 1014.5 0.0
14/09:00am 23.4 16.3 -4.4 15 11.6 NNW 24 35 13 19 1014.8 1014.8 0.0
14/08:30am 22.0 14.9 -4.0 17 10.8 NNW 24 33 13 18 1014.7 1014.7 0.0
14/08:00am 20.2 14.0 -3.2 20 9.7 NNW 20 33 11 18 1014.6 1014.6 0.0
14/07:30am 19.1 11.7 -3.8 21 9.3 N 26 37 14 20 1013.7 1013.7 0.0
14/07:00am 18.3 10.1 -4.3 21 9.0 N 30 46 16 25 1013.1 1013.1 0.0
14/06:30am 17.9 9.1 -4.7 21 8.9 N 33 46 18 25 1012.8 1012.8 0.0
14/06:00am 17.9 9.2 -4.7 21 8.9 NNE 32 41 17 22 1012.7 1012.7 0.0
14/05:30am 17.7 9.5 -4.2 22 8.7 NNE 30 39 16 21 1012.8 1012.8 0.0
14/05:00am 15.3 9.4 -1.9 30 7.0 NE 19 22 10 12 1012.8 1012.8 0.0
14/04:30am 15.8 9.3 -2.2 29 7.3 NE 22 26 12 14 1012.6 1012.6 0.0
14/04:00am 15.6 9.2 -1.4 31 7.0 NE 22 28 12 15 1012.8 1012.8 0.0
14/03:30am 16.2 9.8 -1.4 30 7.3 NNE 22 28 12 15 1012.8 1012.8 0.0
14/03:00am 17.2 10.8 -1.8 27 7.9 NNE 22 28 12 15 1013.1 1013.1 0.0
14/02:30am 18.1 11.6 -2.1 25 8.4 NNE 22 30 12 16 1013.4 1013.4 0.0
14/02:00am 17.3 11.3 -1.3 28 7.8 NNE 20 26 11 14 1013.7 1013.7 0.0
14/01:30am 15.6 9.8 0.1 34 6.6 NE 20 24 11 13 1014.0 1014.0 0.0
14/01:00am 14.0 8.7 1.8 43 5.3 NE 19 22 10 12 1014.6 1014.6 0.0
14/12:30am 13.5 8.1 2.6 47 4.8 ENE 20 24 11 13 1014.9 1014.9 0.0
14/12:00am 14.8 9.2 3.3 46 5.2 ENE 22 26 12 14 1015.1 1015.1 0.0
 
Date/Time
CST
Temp
°C
App
Temp
°C
Dew
Point
Rel
Hum
%
Delta-T
°C
Wind Press
QNH
hPa
Press
MSL
hPa
Rain
since 9 am
mm
Dir
 
Spd
km/h
Gust
km/h
Spd
kts
Gust
kts
13/11:30pm 16.1 10.2 4.0 44 5.6 E 24 28 13 15 1015.9 1015.9 0.0
13/11:00pm 17.1 11.3 4.6 43 5.9 E 24 28 13 15 1016.6 1016.6 0.0
13/10:30pm 17.8 12.8 4.8 42 6.2 E 20 28 11 15 1017.0 1017.0 0.0
13/10:00pm 18.2 12.1 4.8 41 6.4 E 26 32 14 17 1017.3 1017.3 0.0
13/09:30pm 18.5 13.3 5.6 42 6.3 E 22 28 12 15 1017.9 1017.9 0.0
13/09:00pm 18.0 13.6 6.7 47 5.6 ESE 19 22 10 12 1017.7 1017.7 0.0
13/08:30pm 18.7 14.3 4.7 39 6.7 ESE 17 20 9 11 1017.6 1017.6 0.0
13/08:00pm 19.2 14.4 4.9 39 6.9 SE 19 24 10 13 1017.7 1017.7 0.0
13/07:30pm 19.2 14.5 5.2 39 6.8 SE 19 22 10 12 1017.4 1017.4 0.0
13/07:00pm 20.7 15.9 5.8 37 7.4 SE 20 24 11 13 1017.5 1017.5 0.0
13/06:30pm 21.5 16.3 5.4 35 8.0 SE 22 26 12 14 1017.1 1017.1 0.0
13/06:00pm 22.5 17.4 6.1 34 8.3 SSE 22 30 12 16 1016.9 1016.9 0.0
13/05:30pm 22.9 18.2 7.8 38 7.9 S 22 28 12 15 1016.7 1016.7 0.0
13/05:11pm 22.2 19.0 13.1 56 5.2 SW 22 30 12 16 1016.6 1016.6 0.0
13/05:00pm 27.2 23.3 5.5 25 11.2 N 15 24 8 13 1016.5 1016.5 0.0
13/04:30pm 29.1 23.8 -0.5 14 13.9 N 17 24 9 13 1016.5 1016.5 0.0
13/04:00pm 29.1 23.1 -1.4 13 14.1 N 20 32 11 17 1016.6 1016.6 0.0
13/03:30pm 29.0 23.7 -0.7 14 13.9 N 17 26 9 14 1016.8 1016.8 0.0
13/03:00pm 28.5 23.1 -1.1 14 13.7 NNW 17 30 9 16 1016.9 1016.9 0.0
13/02:30pm 29.3 23.6 -0.9 14 14.1 N 19 32 10 17 1017.3 1017.3 0.0

Other Formats:

Comma delimited format used in spreadsheet applications
http://www.bom.gov.au/fwo/IDS60801/IDS60801.94653.axf

JavaScript Object Notation format (JSON) in row-major order
http://www.bom.gov.au/fwo/IDS60801/IDS60801.94653.json